Airfield :
LOGIN :

Register | Disclaimer

   EN    FR    IT 

 










Legend :    VFR   Marginal VFR   IFR   Intensive IFR   Very Intensive IFR
Visi :
Ceiling :
>= 8 km
>= 3000ft
5 to 8 km
1000 to 3000 ft
1500m to 5 km
500 to 1000 ft
800 to 1500m
200 to 500 ft
< 800m
< 200 ft
Symbols :   Thunderstorms  Fog  Heavy snow  Heavy precipitations  Wind > 20 kt
SIGMETs :     Misc.  Thunderstorms  Icing  Turbulence  Mountain Waves  Volcanic Ashes






- Airport Elevation : 24 ft
- IATA code : FAO


LPFR - Faro

CURRENT METAR :
  • 280430Z 28003KT CAVOK 18/11 Q1015

EXPIRED METARs :
  • 280400Z 25004KT CAVOK 17/11 Q1015
  • 280330Z 22003KT CAVOK 17/12 Q1015
  • 280300Z 18002KT CAVOK 18/12 Q1015
  • 280230Z VRB02KT CAVOK 19/10 Q1015
  • 280200Z 35004KT 320V020 CAVOK 21/08 Q1015
  • 280130Z 36005KT CAVOK 21/09 Q1015
  • 280100Z 36008KT CAVOK 22/09 Q1015
  • 280030Z 36009KT CAVOK 22/09 Q1015
  • 280000Z 36008KT CAVOK 23/09 Q1015

TAF TAF LPFR
Valid from the 28 at 00:00 until the 29 at 00:00 UTC


272300Z 2800/2824 36008KT CAVOK
BECMG 2801/2803 VRB02KT
BECMG 2806/2808 13010KT
BECMG 2813/2815 21008KT
BECMG 2816/2818 27008KT
BECMG 2820/2822 VRB02KT



MET'MAP, your aeronautical weather chart ! - Copyright ORBIFLY December 2007 - Disclaimer

ORBIFLY MET'MAP TEAM :

Programming & Development : Alexandra Zaïnal
Original concept : Baudouin d'Aumeries
Technical & hardware support : Manuel Goepfert
Assistance : Marc-Olivier Méhu




SOURCES & CREDITS :

   NOAA